Time;durP1;ratioP1;P1;durP2;ratioP2;P2;SDS_P1;SDS_P2;PMS_P1;PMS_P2;Temp;Humidity;BMP_temperature;BMP_pressure;BME280_temperature;BME280_humidity;BME280_pressure;Samples;Min_cycle;Max_cycle;Signal;HPM_P1;HPM_P2
2023/01/08 05:05:07;;;;;;;3.10;2.83;;;6.90;99.90;;;;;;5350111;23;20233;-68
2023/01/08 05:07:33;;;;;;;3.72;2.85;;;7.10;99.90;;;;;;4974891;28;20215;-68
2023/01/08 05:09:58;;;;;;;2.50;2.30;;;7.40;99.90;;;;;;4975132;28;20186;-69
2023/01/08 05:12:24;;;;;;;2.67;2.03;;;7.60;99.90;;;;;;4957324;28;20180;-71
2023/01/08 05:14:49;;;;;;;2.50;2.20;;;7.90;99.90;;;;;;4964565;28;20588;-69
2023/01/08 05:17:15;;;;;;;3.17;2.30;;;8.10;99.90;;;;;;4975071;28;20492;-68
2023/01/08 05:19:40;;;;;;;2.07;1.97;;;8.30;99.90;;;;;;4975122;28;20175;-68
2023/01/08 05:22:06;;;;;;;2.47;2.30;;;8.60;99.90;;;;;;4973715;28;20270;-69
2023/01/08 05:24:32;;;;;;;2.57;1.80;;;8.80;99.90;;;;;;4974651;28;20203;-69
2023/01/08 05:26:57;;;;;;;2.00;1.87;;;9.00;99.90;;;;;;4974646;28;20254;-69
2023/01/08 05:29:23;;;;;;;1.83;1.50;;;9.10;99.90;;;;;;4975232;28;20183;-69
2023/01/08 05:31:51;;;;;;;3.90;2.03;;;9.20;99.90;;;;;;4975003;28;20692;-69
2023/01/08 05:34:16;;;;;;;2.05;1.83;;;9.30;99.90;;;;;;4972792;28;20215;-69
2023/01/08 05:36:42;;;;;;;1.80;1.70;;;9.30;99.90;;;;;;4974650;28;20165;-68
2023/01/08 05:39:08;;;;;;;2.07;1.70;;;9.30;99.90;;;;;;4974319;28;20167;-69
2023/01/08 05:41:33;;;;;;;1.40;1.30;;;9.40;99.90;;;;;;4962960;28;20176;-69
2023/01/08 05:43:59;;;;;;;1.50;1.40;;;9.40;99.90;;;;;;4974301;28;20616;-68
2023/01/08 05:46:25;;;;;;;1.40;1.30;;;9.50;99.90;;;;;;4974558;28;20264;-69
2023/01/08 05:48:51;;;;;;;1.30;1.20;;;9.50;99.90;;;;;;4974477;28;20204;-69
2023/01/08 05:51:16;;;;;;;1.10;1.10;;;9.60;99.90;;;;;;4974923;28;20168;-67
2023/01/08 05:53:42;;;;;;;1.73;1.33;;;9.70;99.90;;;;;;4974279;28;20271;-69
2023/01/08 05:56:10;;;;;;;1.10;1.10;;;9.70;99.90;;;;;;4957041;28;20184;-67
2023/01/08 05:58:37;;;;;;;1.50;1.40;;;9.80;99.90;;;;;;4974325;28;20164;-68
2023/01/08 06:01:05;;;;;;;1.10;1.00;;;9.80;99.90;;;;;;4956864;28;20168;-68
2023/01/08 06:03:31;;;;;;;0.68;0.60;;;9.80;99.90;;;;;;4973733;28;20634;-69
2023/01/08 06:06:01;;;;;;;1.23;1.13;;;9.80;99.90;;;;;;4956645;28;20195;-69
2023/01/08 06:08:29;;;;;;;1.20;1.20;;;9.80;99.90;;;;;;4974266;28;20173;-69
2023/01/08 06:11:05;;;;;;;1.35;0.90;;;9.80;99.90;;;;;;4956995;28;20275;-68
2023/01/08 06:13:32;;;;;;;0.75;0.75;;;9.90;99.90;;;;;;4974266;28;20242;-68
2023/01/08 06:15:59;;;;;;;1.23;1.00;;;9.90;99.90;;;;;;4974261;28;20173;-68
2023/01/08 06:18:25;;;;;;;1.08;0.98;;;9.80;99.90;;;;;;4974356;28;20178;-69
2023/01/08 06:20:51;;;;;;;1.30;1.20;;;9.80;99.90;;;;;;4974142;28;20176;-69
2023/01/08 06:23:17;;;;;;;0.60;0.60;;;9.80;99.90;;;;;;4973950;28;20168;-69
2023/01/08 06:25:42;;;;;;;0.80;0.80;;;9.70;99.90;;;;;;4976051;28;20527;-69
2023/01/08 06:28:08;;;;;;;3.23;0.70;;;9.80;99.90;;;;;;4977498;28;20178;-68
2023/01/08 06:30:34;;;;;;;1.00;0.93;;;9.70;99.90;;;;;;4977598;28;20174;-68
2023/01/08 06:33:00;;;;;;;0.60;0.60;;;9.70;99.90;;;;;;4977012;28;20455;-68
2023/01/08 06:35:26;;;;;;;0.60;0.60;;;9.60;99.90;;;;;;4977151;28;20199;-69
2023/01/08 06:37:55;;;;;;;0.90;0.80;;;9.60;99.90;;;;;;4977234;28;20646;-68
2023/01/08 06:40:21;;;;;;;0.70;0.70;;;9.60;99.90;;;;;;4977276;28;20466;-68
2023/01/08 06:42:46;;;;;;;0.70;0.63;;;9.50;99.90;;;;;;4976889;28;20200;-68
2023/01/08 06:45:12;;;;;;;0.50;0.50;;;9.50;99.90;;;;;;4977214;28;20207;-68
2023/01/08 06:47:38;;;;;;;0.60;0.60;;;9.50;99.90;;;;;;4977042;28;20665;-68
2023/01/08 06:50:05;;;;;;;1.40;1.00;;;9.50;99.90;;;;;;4977210;28;20251;-68
2023/01/08 06:52:31;;;;;;;0.82;0.80;;;9.60;99.90;;;;;;4976740;28;20180;-68
2023/01/08 06:54:56;;;;;;;0.80;0.80;;;9.60;99.90;;;;;;4976598;28;20196;-67
2023/01/08 06:57:22;;;;;;;0.57;0.57;;;9.60;99.90;;;;;;4977075;28;20175;-68
2023/01/08 06:59:48;;;;;;;0.60;0.60;;;9.60;99.90;;;;;;4977022;28;20164;-67
2023/01/08 07:02:18;;;;;;;0.70;0.70;;;9.70;99.90;;;;;;4976846;28;20172;-68
2023/01/08 07:04:44;;;;;;;0.70;0.70;;;9.80;99.90;;;;;;4976323;28;20192;-69
2023/01/08 07:07:13;;;;;;;0.67;0.67;;;9.90;99.90;;;;;;4976647;28;20224;-69
2023/01/08 07:09:42;;;;;;;1.02;0.85;;;9.90;99.90;;;;;;4975488;28;20180;-66
2023/01/08 07:12:12;;;;;;;0.70;0.57;;;10.00;99.90;;;;;;4976457;28;20180;-68
2023/01/08 07:14:38;;;;;;;0.70;0.70;;;10.00;99.90;;;;;;4976420;28;20808;-67
2023/01/08 07:17:04;;;;;;;0.60;0.60;;;10.00;99.90;;;;;;4976547;28;20522;-67
2023/01/08 07:19:30;;;;;;;0.70;0.70;;;10.00;99.90;;;;;;4976490;28;20168;-67
2023/01/08 07:21:56;;;;;;;0.88;0.88;;;9.90;99.90;;;;;;4976294;28;20348;-67
2023/01/08 07:24:21;;;;;;;1.10;1.00;;;9.90;99.90;;;;;;4958825;28;20698;-68
2023/01/08 07:26:47;;;;;;;1.23;1.13;;;9.90;99.90;;;;;;4976613;28;20176;-69
2023/01/08 07:29:12;;;;;;;0.90;0.83;;;9.80;99.90;;;;;;4976574;28;20172;-68
2023/01/08 07:31:38;;;;;;;1.03;0.63;;;9.70;99.90;;;;;;4976648;28;20231;-68
2023/01/08 07:34:04;;;;;;;0.60;0.60;;;9.70;99.90;;;;;;4975752;28;20205;-67
2023/01/08 07:36:29;;;;;;;0.67;0.67;;;9.70;99.90;;;;;;4957887;28;20172;-67
2023/01/08 07:38:55;;;;;;;1.77;1.37;;;9.70;99.90;;;;;;4976241;28;20637;-67
2023/01/08 07:41:20;;;;;;;0.80;0.80;;;9.70;99.90;;;;;;4976031;28;20187;-66
2023/01/08 07:43:47;;;;;;;0.80;0.80;;;9.80;99.90;;;;;;4975710;28;20200;-68
2023/01/08 07:46:13;;;;;;;0.90;0.90;;;9.80;99.90;;;;;;4975849;28;20176;-69
2023/01/08 07:48:39;;;;;;;0.75;0.75;;;9.80;99.90;;;;;;4976222;28;20179;-67
2023/01/08 07:51:06;;;;;;;0.87;0.87;;;9.70;99.90;;;;;;4958495;28;20555;-67
2023/01/08 07:53:33;;;;;;;0.93;0.93;;;9.70;99.90;;;;;;4957360;28;20188;-68
2023/01/08 07:56:03;;;;;;;0.68;0.68;;;9.60;99.90;;;;;;4974963;28;20183;-70
2023/01/08 07:58:29;;;;;;;0.80;0.60;;;9.50;99.90;;;;;;4974275;28;20271;-69
2023/01/08 08:00:55;;;;;;;0.60;0.60;;;9.50;99.90;;;;;;4958281;28;20255;-70
2023/01/08 08:03:21;;;;;;;1.03;1.03;;;9.50;99.90;;;;;;4957983;28;20187;-67
2023/01/08 08:05:47;;;;;;;0.50;0.50;;;9.50;99.90;;;;;;4975327;28;20454;-70
2023/01/08 08:08:13;;;;;;;0.93;0.80;;;9.50;99.90;;;;;;4975540;28;20412;-70
2023/01/08 08:10:40;;;;;;;1.08;1.08;;;9.50;99.90;;;;;;4975670;28;20172;-70
2023/01/08 08:13:07;;;;;;;1.23;1.13;;;9.50;99.90;;;;;;4975168;28;20199;-71
2023/01/08 08:15:34;;;;;;;0.63;0.63;;;9.50;99.90;;;;;;4973971;28;20192;-69
2023/01/08 08:17:59;;;;;;;0.80;0.80;;;9.60;99.90;;;;;;4972098;28;20178;-71
2023/01/08 08:20:26;;;;;;;0.60;0.60;;;9.50;99.90;;;;;;4974599;28;20250;-71
2023/01/08 08:22:51;;;;;;;0.60;0.60;;;9.60;99.90;;;;;;4974581;28;20541;-70
2023/01/08 08:25:17;;;;;;;0.70;0.60;;;9.60;99.90;;;;;;4957769;28;20274;-72
2023/01/08 08:27:43;;;;;;;0.60;0.60;;;9.60;99.90;;;;;;4958008;28;20414;-72
2023/01/08 08:30:10;;;;;;;0.70;0.70;;;9.50;99.90;;;;;;4974337;28;20183;-70
2023/01/08 08:32:36;;;;;;;0.80;0.80;;;9.50;99.90;;;;;;4974823;28;20164;-70
2023/01/08 08:35:03;;;;;;;1.20;1.20;;;9.50;99.90;;;;;;4974089;28;20535;-72
2023/01/08 08:37:28;;;;;;;0.85;0.85;;;9.40;99.90;;;;;;4974106;28;20259;-72
2023/01/08 08:39:54;;;;;;;1.00;1.00;;;9.40;99.90;;;;;;4957506;28;20263;-73
2023/01/08 08:42:20;;;;;;;3.00;1.30;;;9.40;99.90;;;;;;4956732;28;20172;-72
2023/01/08 08:44:45;;;;;;;0.80;0.80;;;9.40;99.90;;;;;;4974460;28;20195;-71
2023/01/08 08:47:11;;;;;;;0.90;0.80;;;9.40;99.90;;;;;;4960441;28;20183;-72
2023/01/08 08:49:37;;;;;;;0.90;0.90;;;9.40;99.90;;;;;;4975136;28;20180;-72
2023/01/08 08:52:03;;;;;;;0.93;0.90;;;9.40;99.90;;;;;;4973706;28;20583;-70
2023/01/08 08:54:29;;;;;;;2.55;0.80;;;9.40;99.90;;;;;;4974476;28;20261;-72
2023/01/08 08:56:55;;;;;;;0.80;0.80;;;9.40;99.90;;;;;;4974449;28;20172;-71
2023/01/08 08:59:20;;;;;;;2.30;1.10;;;9.50;99.90;;;;;;4975015;28;20648;-70
2023/01/08 09:01:46;;;;;;;0.67;0.67;;;9.50;99.90;;;;;;4974684;28;20179;-69
2023/01/08 09:04:12;;;;;;;0.83;0.83;;;9.50;99.90;;;;;;4972391;28;20218;-70
2023/01/08 09:06:37;;;;;;;0.73;0.73;;;9.50;99.90;;;;;;4972706;28;20183;-71
2023/01/08 09:09:03;;;;;;;1.90;0.97;;;9.50;99.90;;;;;;4972414;28;20186;-71
2023/01/08 09:11:29;;;;;;;0.87;0.87;;;9.50;99.90;;;;;;4972897;28;20172;-72
2023/01/08 09:13:55;;;;;;;0.90;0.90;;;9.50;99.90;;;;;;4972526;28;20831;-71
2023/01/08 09:16:21;;;;;;;0.77;0.77;;;9.60;99.90;;;;;;4972823;28;20230;-70
2023/01/08 09:18:47;;;;;;;0.60;0.60;;;9.60;99.90;;;;;;4973869;28;20164;-71
2023/01/08 09:21:14;;;;;;;1.15;1.10;;;9.70;99.90;;;;;;4957298;28;20176;-70
2023/01/08 09:23:39;;;;;;;1.70;0.80;;;9.70;99.90;;;;;;4973873;28;20183;-71
2023/01/08 09:26:05;;;;;;;0.70;0.70;;;9.70;99.90;;;;;;4974634;28;20176;-69
2023/01/08 09:28:31;;;;;;;0.50;0.50;;;9.70;99.90;;;;;;4974679;28;20548;-70
2023/01/08 09:31:01;;;;;;;0.85;0.85;;;9.80;99.90;;;;;;4974433;28;20419;-69
2023/01/08 09:33:28;;;;;;;0.60;0.60;;;9.80;99.90;;;;;;4973933;28;20192;-69
2023/01/08 09:35:53;;;;;;;1.15;0.95;;;9.90;99.90;;;;;;4974703;28;20204;-70
2023/01/08 09:38:19;;;;;;;0.67;0.60;;;9.90;99.90;;;;;;4974363;28;20179;-69
2023/01/08 09:40:58;;;;;;;0.80;0.80;;;10.00;99.90;;;;;;4974454;28;20657;-69
2023/01/08 09:43:27;;;;;;;1.10;1.10;;;10.00;99.90;;;;;;4957418;28;20187;-72
2023/01/08 09:45:57;;;;;;;0.90;0.90;;;10.10;99.90;;;;;;4974279;28;20202;-70
2023/01/08 09:48:26;;;;;;;0.85;0.85;;;10.10;99.90;;;;;;4974202;28;20264;-70
2023/01/08 09:50:52;;;;;;;0.88;0.88;;;10.10;99.90;;;;;;4973058;28;20181;-71
2023/01/08 09:53:19;;;;;;;1.10;1.00;;;10.20;99.90;;;;;;4973712;28;20520;-69
2023/01/08 09:55:53;;;;;;;0.60;0.60;;;10.20;99.90;;;;;;4974071;28;20243;-72
2023/01/08 09:58:26;;;;;;;0.70;0.70;;;10.20;99.90;;;;;;4974342;28;20220;-71
2023/01/08 10:00:53;;;;;;;1.25;1.15;;;10.20;99.90;;;;;;4975189;28;20734;-72
2023/01/08 10:03:18;;;;;;;0.82;0.82;;;10.20;99.90;;;;;;4976311;28;20192;-71
2023/01/08 10:05:44;;;;;;;0.70;0.70;;;10.20;99.90;;;;;;4977620;28;20698;-71
2023/01/08 10:08:13;;;;;;;0.70;0.70;;;10.20;99.90;;;;;;4977794;28;20227;-73
2023/01/08 10:10:41;;;;;;;1.13;0.85;;;10.20;99.90;;;;;;4977751;28;20191;-71
2023/01/08 10:13:10;;;;;;;0.85;0.80;;;10.20;99.90;;;;;;4977282;28;20675;-71
2023/01/08 10:15:36;;;;;;;0.70;0.70;;;10.20;99.90;;;;;;4977342;28;20205;-71
2023/01/08 10:18:04;;;;;;;2.77;1.93;;;10.20;99.90;;;;;;4977396;28;20531;-71
2023/01/08 10:20:32;;;;;;;1.35;1.25;;;10.30;99.90;;;;;;4977932;28;20530;-72
2023/01/08 10:23:12;;;;;;;1.60;1.50;;;10.30;99.90;;;;;;4977179;28;20176;-69
2023/01/08 10:26:23;;;;;;;15.80;3.50;;;10.30;99.90;;;;;;4976144;28;20196;-73
2023/01/08 10:28:49;;;;;;;4.97;1.92;;;10.40;99.90;;;;;;4917540;29;20243;-71
2023/01/08 10:31:15;;;;;;;0.80;0.80;;;10.40;99.90;;;;;;4969045;28;20279;-70
2023/01/08 10:33:44;;;;;;;0.52;0.52;;;10.50;99.90;;;;;;4977080;28;20282;-71
2023/01/08 10:36:12;;;;;;;0.90;0.85;;;10.50;99.90;;;;;;4977417;28;20174;-70
2023/01/08 10:38:49;;;;;;;0.63;0.63;;;10.50;99.90;;;;;;4977175;28;20615;-70
2023/01/08 10:41:16;;;;;;;0.65;0.65;;;10.50;99.90;;;;;;4977495;28;20176;-71
2023/01/08 10:43:55;;;;;;;0.73;0.70;;;10.50;99.90;;;;;;4976560;28;20203;-71
2023/01/08 10:46:46;;;;;;;1.30;1.17;;;10.50;99.90;;;;;;4977402;28;20203;-71
2023/01/08 10:49:40;;;;;;;0.77;0.77;;;10.60;99.90;;;;;;4977222;28;20188;-69
2023/01/08 10:52:31;;;;;;;0.60;0.60;;;10.60;99.90;;;;;;4975737;28;20674;-71
2023/01/08 10:54:57;;;;;;;0.70;0.60;;;10.60;99.90;;;;;;4976452;28;20343;-72
2023/01/08 10:57:28;;;;;;;1.13;1.02;;;10.70;99.90;;;;;;4976767;28;20180;-71
2023/01/08 10:59:55;;;;;;;0.75;0.75;;;10.70;99.90;;;;;;4977094;28;20182;-71
2023/01/08 11:02:35;;;;;;;0.77;0.77;;;10.70;99.90;;;;;;4977210;28;20177;-72
2023/01/08 11:05:04;;;;;;;0.70;0.70;;;10.80;99.90;;;;;;4976331;28;20567;-71
2023/01/08 11:07:34;;;;;;;1.25;1.17;;;10.80;99.90;;;;;;4976895;28;20181;-70
2023/01/08 11:10:00;;;;;;;1.52;0.95;;;10.80;99.90;;;;;;4976341;28;20187;-72
2023/01/08 11:12:37;;;;;;;0.90;0.90;;;10.80;99.90;;;;;;4965615;28;20181;-68
2023/01/08 11:15:13;;;;;;;0.95;0.95;;;10.90;99.90;;;;;;4976125;28;20208;-70
2023/01/08 11:17:39;;;;;;;0.95;0.82;;;10.90;99.90;;;;;;4976768;28;20169;-71
2023/01/08 11:20:18;;;;;;;0.80;0.80;;;11.00;99.90;;;;;;4976721;28;20173;-70
2023/01/08 11:22:44;;;;;;;0.60;0.60;;;11.10;99.90;;;;;;4976171;28;20171;-70
2023/01/08 11:25:13;;;;;;;0.93;0.70;;;11.20;99.90;;;;;;4976462;28;20226;-72
2023/01/08 11:27:43;;;;;;;0.73;0.73;;;11.30;99.90;;;;;;4976694;28;20174;-70
2023/01/08 11:30:12;;;;;;;3.40;0.70;;;11.40;99.90;;;;;;4976438;28;20475;-72
2023/01/08 11:33:00;;;;;;;0.50;0.50;;;11.40;99.90;;;;;;4976360;28;20403;-72
2023/01/08 11:35:30;;;;;;;0.63;0.60;;;11.50;99.90;;;;;;4974813;28;20967;-72
2023/01/08 11:38:00;;;;;;;0.40;0.40;;;11.50;99.90;;;;;;4975886;28;20426;-70
2023/01/08 11:40:29;;;;;;;0.83;0.70;;;11.60;99.90;;;;;;4974926;28;20182;-71
2023/01/08 11:43:08;;;;;;;0.67;0.67;;;11.50;99.90;;;;;;4975641;28;20405;-70
2023/01/08 11:45:50;;;;;;;5.80;0.60;;;11.60;99.90;;;;;;4976091;28;20427;-72
2023/01/08 11:48:29;;;;;;;0.50;0.50;;;11.60;99.90;;;;;;4975979;28;20468;-71
2023/01/08 11:51:16;;;;;;;1.23;0.80;;;11.60;99.90;;;;;;4975645;28;20431;-71
2023/01/08 11:53:58;;;;;;;0.63;0.57;;;11.70;99.90;;;;;;4975396;28;20989;-70
2023/01/08 11:56:39;;;;;;;0.77;0.77;;;11.80;99.90;;;;;;4974411;28;20425;-72
2023/01/08 11:59:25;;;;;;;0.60;0.60;;;11.90;99.90;;;;;;4976287;28;20433;-70
2023/01/08 12:02:29;;;;;;;0.57;0.57;;;11.90;99.90;;;;;;4975941;28;20409;-70
2023/01/08 12:05:06;;;;;;;0.57;0.57;;;11.90;99.90;;;;;;4966060;28;21216;-71
2023/01/08 12:07:48;;;;;;;0.57;0.40;;;12.00;99.90;;;;;;4975714;28;20418;-72
2023/01/08 12:10:23;;;;;;;1.20;0.73;;;12.00;99.90;;;;;;4975753;28;20402;-72
2023/01/08 12:13:05;;;;;;;0.60;0.60;;;11.90;99.90;;;;;;4974949;28;20887;-69
2023/01/08 12:15:48;;;;;;;0.67;0.67;;;11.80;99.90;;;;;;4975570;28;20435;-69
2023/01/08 12:18:41;;;;;;;0.63;0.63;;;11.80;99.90;;;;;;4975443;28;20884;-70
2023/01/08 12:21:30;;;;;;;0.70;0.70;;;11.80;99.90;;;;;;4973948;28;20425;-71
2023/01/08 12:24:32;;;;;;;0.60;0.60;;;11.70;99.90;;;;;;4974496;28;20456;-71
2023/01/08 12:27:12;;;;;;;0.50;0.50;;;11.60;99.90;;;;;;4973972;28;20848;-71
2023/01/08 12:30:05;;;;;;;0.85;0.60;;;11.50;99.90;;;;;;4975360;28;20405;-71
2023/01/08 12:32:48;;;;;;;0.63;0.63;;;11.50;99.90;;;;;;4975184;28;20327;-71
2023/01/08 12:35:42;;;;;;;0.60;0.60;;;11.50;99.90;;;;;;4975172;28;20455;-72
2023/01/08 12:38:27;;;;;;;0.60;0.60;;;11.50;99.90;;;;;;4973297;28;20436;-71
2023/01/08 12:40:59;;;;;;;0.63;0.60;;;11.40;99.90;;;;;;4974905;28;20398;-73
2023/01/08 12:44:01;;;;;;;0.70;0.70;;;11.50;99.90;;;;;;4973204;28;20433;-70
2023/01/08 12:46:40;;;;;;;0.57;0.57;;;11.50;99.90;;;;;;4975125;28;20405;-72
2023/01/08 12:49:09;;;;;;;0.75;0.75;;;11.50;99.90;;;;;;4974744;28;20433;-71
2023/01/08 12:51:56;;;;;;;0.60;0.60;;;11.40;99.90;;;;;;4974886;28;20182;-72
2023/01/08 12:54:49;;;;;;;0.77;0.77;;;11.50;99.90;;;;;;4973045;28;20839;-72
2023/01/08 12:57:29;;;;;;;0.90;0.90;;;11.40;99.90;;;;;;4974986;28;20395;-70
2023/01/08 13:00:00;;;;;;;0.60;0.60;;;11.40;99.90;;;;;;4975134;28;20522;-70
2023/01/08 13:02:58;;;;;;;0.82;0.82;;;11.50;99.90;;;;;;4974547;28;20167;-71
2023/01/08 13:05:23;;;;;;;0.55;0.55;;;11.40;99.90;;;;;;4974446;28;20287;-71
2023/01/08 13:07:56;;;;;;;0.67;0.67;;;11.50;99.90;;;;;;4974663;28;20254;-68
2023/01/08 13:10:35;;;;;;;1.63;0.80;;;11.50;99.90;;;;;;4974714;28;20169;-69
2023/01/08 13:13:01;;;;;;;0.97;0.70;;;11.50;99.90;;;;;;4974044;28;20666;-71
2023/01/08 13:15:28;;;;;;;0.77;0.77;;;11.60;99.90;;;;;;4974113;28;20439;-72
2023/01/08 13:18:02;;;;;;;1.23;0.60;;;11.60;99.90;;;;;;4974676;28;20444;-70
2023/01/08 13:20:31;;;;;;;0.70;0.57;;;11.60;99.90;;;;;;4957393;28;20437;-71
2023/01/08 13:23:04;;;;;;;0.57;0.57;;;11.60;99.90;;;;;;4974521;28;20418;-72
2023/01/08 13:25:31;;;;;;;0.47;0.47;;;11.60;99.90;;;;;;4974609;28;20441;-71
2023/01/08 13:27:57;;;;;;;0.97;0.70;;;11.50;99.90;;;;;;4974349;28;20824;-72
2023/01/08 13:30:38;;;;;;;0.70;0.70;;;11.50;99.90;;;;;;4974206;28;20421;-72
2023/01/08 13:33:35;;;;;;;0.70;0.70;;;11.40;99.90;;;;;;4968882;28;20472;-71
2023/01/08 13:36:21;;;;;;;0.70;0.70;;;11.40;99.90;;;;;;4977468;28;20415;-72
2023/01/08 13:39:01;;;;;;;0.57;0.57;;;11.40;99.90;;;;;;4979791;28;20455;-71
2023/01/08 13:41:30;;;;;;;0.50;0.50;;;11.30;99.90;;;;;;4980845;28;20403;-70
2023/01/08 13:44:05;;;;;;;1.10;1.00;;;11.30;99.90;;;;;;4983476;28;20223;-69
2023/01/08 13:46:33;;;;;;;0.75;0.75;;;11.30;99.90;;;;;;4983875;28;20404;-72
2023/01/08 13:49:03;;;;;;;0.95;0.70;;;11.30;99.90;;;;;;4984272;28;20600;-69
2023/01/08 13:51:45;;;;;;;0.70;0.70;;;11.30;99.90;;;;;;4979366;28;20177;-71
2023/01/08 13:54:13;;;;;;;0.47;0.45;;;11.30;99.90;;;;;;4977838;28;20223;-70
2023/01/08 13:56:44;;;;;;;0.50;0.50;;;11.40;99.90;;;;;;4977963;28;20229;-72
2023/01/08 13:59:29;;;;;;;0.80;0.80;;;11.40;99.90;;;;;;4978051;28;20186;-72
2023/01/08 14:01:55;;;;;;;0.67;0.50;;;11.40;99.90;;;;;;4977978;28;20497;-71
2023/01/08 14:04:22;;;;;;;0.57;0.57;;;11.60;99.90;;;;;;4977255;28;20434;-71
2023/01/08 14:06:48;;;;;;;0.93;0.77;;;11.60;99.90;;;;;;4977692;28;20480;-70
2023/01/08 14:09:23;;;;;;;0.60;0.60;;;11.70;99.90;;;;;;4977759;28;20416;-71
2023/01/08 14:11:56;;;;;;;0.60;0.60;;;11.80;99.90;;;;;;4977419;28;20189;-70
2023/01/08 14:14:23;;;;;;;0.43;0.40;;;11.80;99.90;;;;;;4959583;28;20866;-70
2023/01/08 14:16:50;;;;;;;1.73;1.10;;;11.90;99.90;;;;;;4977776;28;20406;-70
2023/01/08 14:19:23;;;;;;;0.60;0.60;;;12.10;99.90;;;;;;4960548;28;20404;-71
2023/01/08 14:21:54;;;;;;;0.50;0.50;;;12.20;99.90;;;;;;4978063;28;20460;-70
2023/01/08 14:24:22;;;;;;;0.60;0.60;;;12.30;99.90;;;;;;4977122;28;20440;-71
2023/01/08 14:26:55;;;;;;;0.70;0.70;;;12.40;99.90;;;;;;4960105;28;20780;-69
2023/01/08 14:29:24;;;;;;;1.33;0.50;;;12.40;99.90;;;;;;4960790;28;20457;-72
2023/01/08 14:31:52;;;;;;;0.43;0.43;;;12.40;99.90;;;;;;4977538;28;20500;-70
2023/01/08 14:34:21;;;;;;;0.40;0.40;;;12.30;99.90;;;;;;4976894;28;20466;-69
2023/01/08 14:36:50;;;;;;;1.37;0.80;;;12.20;99.90;;;;;;4977365;28;20505;-68
2023/01/08 14:39:21;;;;;;;0.70;0.70;;;12.00;99.90;;;;;;4977426;28;20433;-71
2023/01/08 14:44:32;;;;;;;0.67;0.67;;;11.80;99.90;;;;;;4962716;28;20450;-70
2023/01/08 14:46:58;;;;;;;0.50;0.50;;;11.80;99.90;;;;;;4977222;28;20413;-71
2023/01/08 14:49:29;;;;;;;0.43;0.43;;;11.80;99.90;;;;;;4960120;28;20278;-72
2023/01/08 14:51:59;;;;;;;0.60;0.40;;;11.70;99.90;;;;;;4959949;28;20178;-71
2023/01/08 14:54:33;;;;;;;0.50;0.43;;;11.70;99.90;;;;;;4976615;28;20834;-70
2023/01/08 14:57:01;;;;;;;0.40;0.40;;;11.70;99.90;;;;;;4977550;28;20397;-71
2023/01/08 14:59:38;;;;;;;0.60;0.60;;;11.70;99.90;;;;;;4980539;28;20406;-72
2023/01/08 15:02:13;;;;;;;2.40;1.30;;;11.60;99.90;;;;;;4980655;28;20409;-71
2023/01/08 15:04:40;;;;;;;0.60;0.60;;;11.60;99.90;;;;;;4979668;28;20432;-71
2023/01/08 15:07:15;;;;;;;0.70;0.43;;;11.60;99.90;;;;;;4980123;28;20196;-70
2023/01/08 15:09:40;;;;;;;0.40;0.40;;;11.60;99.90;;;;;;4979675;28;20448;-70
2023/01/08 15:12:21;;;;;;;0.97;0.50;;;11.60;99.90;;;;;;4980840;28;20760;-70
2023/01/08 15:14:47;;;;;;;0.60;0.60;;;11.60;99.90;;;;;;4979007;28;20204;-70
2023/01/08 15:17:18;;;;;;;0.70;0.70;;;11.50;99.90;;;;;;4977570;28;20460;-71
2023/01/08 15:19:48;;;;;;;1.27;0.93;;;11.50;99.90;;;;;;4979045;28;20509;-69
2023/01/08 15:22:32;;;;;;;0.93;0.83;;;11.50;99.90;;;;;;4977137;28;20428;-70
2023/01/08 15:25:00;;;;;;;0.60;0.60;;;11.60;99.90;;;;;;4977937;28;20781;-70
2023/01/08 15:27:27;;;;;;;0.75;0.75;;;11.50;99.90;;;;;;4977912;28;20329;-72
2023/01/08 15:30:02;;;;;;;0.67;0.67;;;11.50;99.90;;;;;;4977456;28;20621;-70
2023/01/08 15:32:38;;;;;;;0.57;0.57;;;11.50;99.90;;;;;;4978687;28;20490;-70
2023/01/08 15:35:15;;;;;;;1.00;1.00;;;11.30;99.90;;;;;;4978971;28;20477;-71
2023/01/08 15:37:41;;;;;;;0.70;0.70;;;11.30;99.90;;;;;;4979665;28;20407;-69
2023/01/08 15:40:08;;;;;;;0.93;0.93;;;11.20;99.90;;;;;;4978096;28;20304;-70
2023/01/08 15:45:20;;;;;;;0.95;0.80;;;11.10;99.90;;;;;;4976299;28;20690;-71
2023/01/08 15:47:47;;;;;;;1.15;1.05;;;11.10;99.90;;;;;;4974494;28;20544;-70
2023/01/08 15:50:13;;;;;;;1.17;1.08;;;10.90;99.90;;;;;;4975806;28;20180;-67
2023/01/08 15:52:41;;;;;;;1.17;1.17;;;10.80;99.90;;;;;;4974446;28;20180;-66
2023/01/08 15:55:15;;;;;;;1.20;1.10;;;10.80;99.90;;;;;;4975670;28;20216;-65
2023/01/08 15:57:40;;;;;;;1.20;1.20;;;10.60;99.90;;;;;;4974719;28;20195;-66
2023/01/08 16:00:07;;;;;;;1.40;1.30;;;10.60;99.90;;;;;;4974470;28;20172;-67
2023/01/08 16:02:40;;;;;;;1.65;1.55;;;10.50;99.90;;;;;;4975773;28;20173;-66
2023/01/08 16:05:06;;;;;;;1.27;1.10;;;10.40;99.90;;;;;;4973184;28;20223;-68
2023/01/08 16:07:32;;;;;;;1.13;1.00;;;10.30;99.90;;;;;;4974141;28;20688;-67
2023/01/08 16:09:57;;;;;;;1.00;1.00;;;10.30;99.90;;;;;;4974902;28;20431;-71
2023/01/08 16:12:23;;;;;;;1.13;1.03;;;10.30;99.90;;;;;;4975122;28;20654;-69
2023/01/08 16:14:50;;;;;;;1.10;1.00;;;10.20;99.90;;;;;;4974830;28;20203;-69
2023/01/08 16:17:15;;;;;;;0.80;0.80;;;10.20;99.90;;;;;;4975613;28;20259;-70
2023/01/08 16:19:41;;;;;;;0.70;0.70;;;10.20;99.90;;;;;;4975042;28;20267;-68
2023/01/08 16:22:06;;;;;;;0.90;0.67;;;10.20;99.90;;;;;;4967258;28;20204;-68
2023/01/08 16:24:33;;;;;;;1.00;1.00;;;10.20;99.90;;;;;;4974498;28;20277;-69
2023/01/08 16:26:58;;;;;;;0.70;0.70;;;10.20;99.90;;;;;;4975277;28;20168;-68
2023/01/08 16:29:24;;;;;;;0.83;0.83;;;10.30;99.90;;;;;;4975211;28;20199;-69
2023/01/08 16:31:50;;;;;;;1.10;1.00;;;10.30;99.90;;;;;;4974879;28;20181;-67
2023/01/08 16:34:15;;;;;;;1.40;0.97;;;10.40;99.90;;;;;;4974410;28;20262;-69
2023/01/08 16:36:41;;;;;;;0.60;0.60;;;10.50;99.90;;;;;;4974684;28;20234;-68
2023/01/08 16:39:07;;;;;;;0.73;0.53;;;10.60;99.90;;;;;;4975236;28;20636;-69
2023/01/08 16:41:33;;;;;;;0.60;0.60;;;10.60;99.90;;;;;;4975209;28;20630;-69
2023/01/08 16:43:58;;;;;;;0.80;0.80;;;10.60;99.90;;;;;;4974607;28;20200;-68
2023/01/08 16:46:25;;;;;;;1.20;1.10;;;10.70;99.90;;;;;;4974427;28;20173;-68
2023/01/08 16:48:51;;;;;;;0.70;0.70;;;10.70;99.90;;;;;;4974527;28;20201;-69
2023/01/08 16:51:16;;;;;;;0.80;0.80;;;10.80;99.90;;;;;;4974822;28;20250;-69
2023/01/08 16:53:42;;;;;;;1.60;1.50;;;10.80;99.90;;;;;;4973883;28;20209;-67
2023/01/08 16:56:08;;;;;;;1.93;1.63;;;10.80;99.90;;;;;;4974190;28;20184;-70
2023/01/08 16:58:35;;;;;;;0.95;0.95;;;10.70;99.90;;;;;;4973138;28;20211;-69
2023/01/08 17:01:05;;;;;;;1.45;1.40;;;10.70;99.90;;;;;;4974429;28;20266;-69
2023/01/08 17:03:31;;;;;;;2.47;1.85;;;10.70;99.90;;;;;;4973615;28;20191;-69
2023/01/08 17:06:00;;;;;;;1.20;1.10;;;10.60;99.90;;;;;;4974230;28;20234;-69
2023/01/08 17:08:27;;;;;;;1.70;1.50;;;10.60;99.90;;;;;;4974098;28;20180;-67
2023/01/08 17:10:52;;;;;;;2.60;2.35;;;10.50;99.90;;;;;;4957454;28;20239;-68
2023/01/08 17:13:18;;;;;;;3.67;2.33;;;10.40;99.90;;;;;;4974441;28;20199;-68
2023/01/08 17:15:44;;;;;;;2.90;2.70;;;10.40;99.90;;;;;;4956986;28;20231;-68
2023/01/08 17:18:09;;;;;;;3.27;2.40;;;10.30;99.90;;;;;;4974291;28;20180;-67
2023/01/08 17:20:35;;;;;;;2.57;2.37;;;10.30;99.90;;;;;;4974630;28;20195;-69
2023/01/08 17:23:01;;;;;;;2.78;2.55;;;10.20;99.90;;;;;;4974487;28;20171;-67
2023/01/08 17:25:26;;;;;;;2.97;2.77;;;10.20;99.90;;;;;;4974600;28;20204;-66
2023/01/08 17:27:52;;;;;;;2.80;2.27;;;10.20;99.90;;;;;;4974199;28;20184;-65
2023/01/08 17:30:18;;;;;;;2.97;2.77;;;10.20;99.90;;;;;;4974502;28;20177;-65
2023/01/08 17:32:44;;;;;;;3.27;2.87;;;10.20;99.90;;;;;;4973065;28;20635;-68
2023/01/08 17:35:09;;;;;;;3.57;3.30;;;10.20;99.90;;;;;;4974277;28;20462;-67
2023/01/08 17:37:35;;;;;;;3.30;2.70;;;10.30;99.90;;;;;;4974398;28;20172;-65
2023/01/08 17:40:01;;;;;;;3.50;3.20;;;10.30;99.90;;;;;;4955078;29;20169;-68
2023/01/08 17:42:28;;;;;;;2.67;2.50;;;10.20;99.90;;;;;;4955034;29;20177;-70
2023/01/08 17:44:56;;;;;;;2.63;2.42;;;10.20;99.90;;;;;;4937514;29;20938;-65
2023/01/08 17:47:24;;;;;;;3.20;2.33;;;10.20;99.90;;;;;;4966788;28;20195;-65
2023/01/08 17:49:54;;;;;;;4.03;3.10;;;10.10;99.90;;;;;;4973569;28;20260;-65
2023/01/08 17:52:22;;;;;;;4.85;4.35;;;10.10;99.90;;;;;;4974359;28;20646;-67
2023/01/08 17:54:51;;;;;;;3.00;2.80;;;10.00;99.90;;;;;;4973392;28;20214;-64
2023/01/08 17:57:19;;;;;;;2.70;2.50;;;10.00;99.90;;;;;;4974124;28;20181;-65
2023/01/08 17:59:45;;;;;;;2.83;2.22;;;10.00;99.90;;;;;;4973976;28;20169;-65
2023/01/08 18:02:13;;;;;;;2.63;2.42;;;10.00;99.90;;;;;;4972392;28;20203;-64
2023/01/08 18:04:42;;;;;;;2.90;2.70;;;10.10;99.90;;;;;;4969900;28;20554;-69
2023/01/08 18:07:08;;;;;;;4.43;3.10;;;10.00;99.90;;;;;;4972976;28;20197;-66
2023/01/08 18:09:34;;;;;;;4.00;3.38;;;10.00;99.90;;;;;;4973855;28;20259;-65
2023/01/08 18:12:00;;;;;;;4.10;3.47;;;10.00;99.90;;;;;;4973932;28;20365;-65
2023/01/08 18:14:26;;;;;;;4.27;3.77;;;9.90;99.90;;;;;;4972790;28;20211;-67